createdAt,value
2022-11-29T00:01:09.982Z,94529.56
2022-11-29T00:03:37.496Z,94526.13
2022-11-29T00:06:05.822Z,94530.59
2022-11-29T00:08:32.958Z,94529.56
2022-11-29T00:11:04.361Z,94530.94
2022-11-29T00:13:32.685Z,94529.09
2022-11-29T00:16:03.263Z,94525.44
2022-11-29T00:18:30.197Z,94533.56
2022-11-29T00:20:57.122Z,94525.91
2022-11-29T00:23:23.780Z,94524.06
2022-11-29T00:25:50.477Z,94521.44
2022-11-29T00:28:17.310Z,94518.81
2022-11-29T00:30:45.463Z,94524.31
2022-11-29T00:33:12.174Z,94521.13
2022-11-29T00:35:38.859Z,94523.50
2022-11-29T00:38:05.773Z,94521.91
2022-11-29T00:40:32.462Z,94511.44
2022-11-29T00:42:59.122Z,94521.91
2022-11-29T00:45:25.852Z,94520.88
2022-11-29T00:47:54.046Z,94522.50
2022-11-29T00:50:21.216Z,94519.63
2022-11-29T00:52:47.924Z,94515.19
2022-11-29T00:55:14.995Z,94522.81
2022-11-29T00:57:42.056Z,94514.38
2022-11-29T01:00:09.893Z,94520.97
2022-11-29T01:02:36.650Z,94521.31
2022-11-29T01:05:05.541Z,94526.56
2022-11-29T01:07:32.255Z,94517.88
2022-11-29T01:09:59.150Z,94522.91
2022-11-29T01:12:25.868Z,94526.31
2022-11-29T01:14:52.556Z,94524.25
2022-11-29T01:17:19.404Z,94528.47
2022-11-29T01:19:50.581Z,94528.25
2022-11-29T01:22:19.063Z,94527.19
2022-11-29T01:24:46.230Z,94525.94
2022-11-29T01:27:13.377Z,94530.38
2022-11-29T01:29:40.228Z,94526.75
2022-11-29T01:32:06.892Z,94526.28
2022-11-29T01:34:33.696Z,94527.06
2022-11-29T01:37:00.488Z,94527.84
2022-11-29T01:39:28.512Z,94526.28
2022-11-29T01:41:55.431Z,94526.03
2022-11-29T01:44:59.632Z,94531.03
2022-11-29T01:47:26.624Z,94535.50
2022-11-29T01:49:53.353Z,94531.03
2022-11-29T01:52:23.997Z,94524.75
2022-11-29T01:54:55.572Z,94527.38
2022-11-29T01:57:26.811Z,94523.97
2022-11-29T01:59:58.227Z,94529.22
2022-11-29T02:02:32.932Z,94527.38
2022-11-29T02:05:02.670Z,94526.38
2022-11-29T02:07:29.647Z,94528.16
2022-11-29T02:09:57.886Z,94525.78
2022-11-29T02:12:34.928Z,94519.50
2022-11-29T02:15:24.899Z,94526.38
2022-11-29T02:18:06.615Z,94516.34
2022-11-29T02:20:57.647Z,94527.63
2022-11-29T02:23:47.527Z,94523.75
2022-11-29T02:26:29.369Z,94519.50
2022-11-29T02:29:44.305Z,94521.59
2022-11-29T02:32:29.897Z,94520.47
2022-11-29T02:35:08.248Z,94519.88
2022-11-29T02:37:52.045Z,94511.72
2022-11-29T02:40:54.620Z,94512.63
2022-11-29T02:43:58.766Z,94513.25
2022-11-29T02:46:48.742Z,94515.31
2022-11-29T02:49:27.803Z,94516.59
2022-11-29T02:52:00.327Z,94518.41
2022-11-29T02:54:34.861Z,94512.38
2022-11-29T02:57:11.800Z,94522.16
2022-11-29T02:59:45.739Z,94514.06
2022-11-29T03:02:22.918Z,94516.19
2022-11-29T03:04:58.543Z,94524.41
2022-11-29T03:07:35.816Z,94527.34
2022-11-29T03:10:09.145Z,94526.09
2022-11-29T03:12:40.298Z,94528.47
2022-11-29T03:15:19.428Z,94530.06
2022-11-29T03:18:01.138Z,94530.53
2022-11-29T03:20:38.999Z,94543.88
2022-11-29T03:23:18.955Z,94532.59
2022-11-29T03:25:53.419Z,94535.53
2022-11-29T03:28:25.026Z,94535.78
2022-11-29T03:30:59.732Z,94538.63
2022-11-29T03:33:35.884Z,94541.47
2022-11-29T03:36:07.480Z,94536.97
2022-11-29T03:38:39.827Z,94533.22
2022-11-29T03:41:18.294Z,94539.72
2022-11-29T03:43:50.624Z,94540.19
2022-11-29T03:46:26.458Z,94536.22
2022-11-29T03:48:59.470Z,94543.50
2022-11-29T03:51:41.000Z,94542.50
2022-11-29T03:54:10.975Z,94541.44
2022-11-29T03:56:39.957Z,94541.44
2022-11-29T03:59:24.599Z,94536.78
2022-11-29T04:02:18.495Z,94539.88
2022-11-29T04:05:21.208Z,94537.78
2022-11-29T04:08:02.630Z,94534.63
2022-11-29T04:11:02.803Z,94533.81
2022-11-29T04:13:58.424Z,94533.47
2022-11-29T04:17:02.343Z,94536.09
2022-11-29T04:20:01.057Z,94532.69
2022-11-29T04:22:56.830Z,94536.91
2022-11-29T04:25:52.950Z,94537.25
2022-11-29T04:28:53.946Z,94536.22
2022-11-29T04:31:36.462Z,94533.59
2022-11-29T04:34:29.870Z,94532.78
2022-11-29T04:37:18.730Z,94537.56
2022-11-29T04:40:27.014Z,94533.91
2022-11-29T04:43:34.778Z,94530.50
2022-11-29T04:46:29.830Z,94541.44
2022-11-29T04:49:16.329Z,94536.22
2022-11-29T04:51:58.912Z,94543.03
2022-11-29T04:54:31.150Z,94547.50
2022-11-29T04:57:08.139Z,94549.09
2022-11-29T04:59:43.351Z,94555.34
2022-11-29T05:02:27.043Z,94545.66
2022-11-29T05:05:03.972Z,94553.31
2022-11-29T05:07:37.182Z,94550.69
2022-11-29T05:10:22.885Z,94555.94
2022-11-29T05:12:59.700Z,94555.72
2022-11-29T05:15:50.199Z,94558.66
2022-11-29T05:18:26.730Z,94563.41
2022-11-29T05:21:02.488Z,94558.84
2022-11-29T05:23:40.059Z,94565.44
2022-11-29T05:26:14.523Z,94557.09
2022-11-29T05:28:53.498Z,94563.94
2022-11-29T05:31:29.442Z,94567.13
2022-11-29T05:34:07.839Z,94571.56
2022-11-29T05:36:43.895Z,94569.53
2022-11-29T05:39:20.548Z,94570.53
2022-11-29T05:42:02.601Z,94568.94
2022-11-29T05:44:36.478Z,94571.81
2022-11-29T05:47:04.698Z,94569.66
2022-11-29T05:49:40.266Z,94571.25
2022-11-29T05:52:21.520Z,94575.25
2022-11-29T05:55:00.602Z,94577.41
2022-11-29T05:57:36.222Z,94577.41
2022-11-29T06:00:06.567Z,94571.34
2022-11-29T06:02:49.167Z,94576.34
2022-11-29T06:05:24.902Z,94579.75
2022-11-29T06:07:58.137Z,94573.72
2022-11-29T06:10:28.650Z,94570.88
2022-11-29T06:13:05.826Z,94575.09
2022-11-29T06:16:19.002Z,94578.28
2022-11-29T06:19:11.962Z,94576.69
2022-11-29T06:21:45.908Z,94582.97
2022-11-29T06:24:29.812Z,94585.59
2022-11-29T06:27:15.770Z,94584.78
2022-11-29T06:29:48.190Z,94591.88
2022-11-29T06:32:25.242Z,94585.84
2022-11-29T06:34:56.410Z,94580.81
2022-11-29T06:37:27.782Z,94580.03
2022-11-29T06:39:55.355Z,94584.91
2022-11-29T06:42:21.980Z,94582.06
2022-11-29T06:44:49.349Z,94583.91
2022-11-29T06:47:26.771Z,94584.91
2022-11-29T06:49:58.897Z,94582.53
2022-11-29T06:52:37.629Z,94584.47
2022-11-29T06:55:12.938Z,94585.25
2022-11-29T06:57:55.856Z,94585.25
2022-11-29T07:00:26.921Z,94589.25
2022-11-29T07:03:15.500Z,94592.97
2022-11-29T07:05:42.956Z,94596.09
2022-11-29T07:08:15.185Z,94593.47
2022-11-29T07:10:43.515Z,94599.75
2022-11-29T07:13:12.434Z,94604.44
2022-11-29T07:15:42.092Z,94601.59
2022-11-29T07:18:21.622Z,94600.31
2022-11-29T07:20:58.733Z,94606.09
2022-11-29T07:23:33.438Z,94607.72
2022-11-29T07:26:15.086Z,94603.25
2022-11-29T07:28:53.458Z,94608.72
2022-11-29T07:31:29.011Z,94614.44
2022-11-29T07:34:08.966Z,94608.19
2022-11-29T07:36:47.881Z,94609.44
2022-11-29T07:39:25.115Z,94610.25
2022-11-29T07:42:02.646Z,94617.88
2022-11-29T07:44:38.976Z,94608.19
2022-11-29T07:47:05.829Z,94608.19
2022-11-29T07:49:33.997Z,94608.72
2022-11-29T07:52:00.957Z,94606.69
2022-11-29T07:54:27.930Z,94613.06
2022-11-29T07:56:54.652Z,94616.00
2022-11-29T07:59:21.416Z,94618.41
2022-11-29T08:01:48.286Z,94618.72
2022-11-29T08:04:15.206Z,94622.69
2022-11-29T08:06:43.249Z,94615.88
2022-11-29T08:09:10.252Z,94614.56
2022-11-29T08:11:36.992Z,94619.59
2022-11-29T08:14:05.277Z,94614.44
2022-11-29T08:16:32.436Z,94626.53
2022-11-29T08:18:59.321Z,94617.63
2022-11-29T08:21:26.578Z,94626.78
2022-11-29T08:23:55.116Z,94628.84
2022-11-29T08:26:25.628Z,94631.47
2022-11-29T08:28:57.043Z,94630.19
2022-11-29T08:31:23.755Z,94626.53
2022-11-29T08:33:50.490Z,94628.16
2022-11-29T08:36:19.458Z,94623.47
2022-11-29T08:38:46.721Z,94634.50
2022-11-29T08:41:16.632Z,94625.03
2022-11-29T08:43:43.800Z,94632.13
2022-11-29T08:46:16.725Z,94634.75
2022-11-29T08:48:45.246Z,94632.91
2022-11-29T08:51:12.260Z,94629.59
2022-11-29T08:53:41.795Z,94629.69
2022-11-29T08:56:41.852Z,94625.78
2022-11-29T08:58:57.123Z,94631.84
2022-11-29T09:01:24.185Z,94634.47
2022-11-29T09:03:59.794Z,94635.81
2022-11-29T09:06:27.669Z,94629.28
2022-11-29T09:08:54.724Z,94642.50
2022-11-29T09:11:22.910Z,94642.81
2022-11-29T09:13:52.126Z,94644.41
2022-11-29T09:16:22.486Z,94639.50
2022-11-29T09:18:51.819Z,94648.47
2022-11-29T09:21:19.349Z,94648.56
2022-11-29T09:23:46.987Z,94645.16
2022-11-29T09:26:18.080Z,94646.28
2022-11-29T09:28:45.108Z,94651.53
2022-11-29T09:31:14.316Z,94652.88
2022-11-29T09:33:43.235Z,94652.63
2022-11-29T09:36:11.158Z,94660.59
2022-11-29T09:38:38.531Z,94655.72
2022-11-29T09:41:14.947Z,94652.41
2022-11-29T09:43:53.118Z,94650.09
2022-11-29T09:46:33.323Z,94653.53
2022-11-29T09:49:18.000Z,94656.16
2022-11-29T09:51:53.682Z,94656.94
2022-11-29T09:54:29.662Z,94654.88
2022-11-29T09:56:57.404Z,94654.63
2022-11-29T09:59:29.142Z,94652.31
2022-11-29T10:02:00.407Z,94650.56
2022-11-29T10:04:32.442Z,94645.13
2022-11-29T10:07:06.080Z,94656.22
2022-11-29T10:09:39.084Z,94646.47
2022-11-29T10:12:14.009Z,94646.47
2022-11-29T10:14:46.851Z,94647.31
2022-11-29T10:17:25.190Z,94643.84
2022-11-29T10:19:59.311Z,94644.97
2022-11-29T10:22:38.226Z,94648.41
2022-11-29T10:25:06.950Z,94645.75
2022-11-29T10:27:36.171Z,94644.50
2022-11-29T10:30:03.277Z,94649.19
2022-11-29T10:32:32.716Z,94641.56
2022-11-29T10:35:02.408Z,94641.78
2022-11-29T10:37:32.678Z,94638.94
2022-11-29T10:40:04.246Z,94634.47
2022-11-29T10:42:48.936Z,94630.47
2022-11-29T10:45:18.223Z,94633.03
2022-11-29T10:47:46.608Z,94627.22
2022-11-29T10:50:16.794Z,94630.63
2022-11-29T10:52:43.656Z,94635.59
2022-11-29T10:55:12.564Z,94637.34
2022-11-29T10:57:59.152Z,94636.00
2022-11-29T11:00:28.274Z,94639.09
2022-11-29T11:02:54.841Z,94637.19
2022-11-29T11:05:25.691Z,94632.16
2022-11-29T11:07:56.246Z,94639.75
2022-11-29T11:13:19.280Z,94639.34
2022-11-29T11:15:48.182Z,94636.38
2022-11-29T11:18:19.730Z,94636.31
2022-11-29T11:20:51.799Z,94636.78
2022-11-29T11:23:23.876Z,94636.00
2022-11-29T11:25:55.739Z,94643.88
2022-11-29T11:28:23.315Z,94643.78
2022-11-29T11:30:53.789Z,94647.13
2022-11-29T11:33:22.384Z,94641.34
2022-11-29T11:36:09.835Z,94638.94
2022-11-29T11:38:38.307Z,94647.03
2022-11-29T11:41:06.828Z,94647.28
2022-11-29T11:43:35.090Z,94650.69
2022-11-29T11:46:03.357Z,94640.75
2022-11-29T11:48:30.331Z,94645.53
2022-11-29T11:50:58.388Z,94646.91
2022-11-29T11:53:26.865Z,94642.22
2022-11-29T11:55:55.984Z,94646.50
2022-11-29T11:58:23.708Z,94647.06
2022-11-29T12:01:06.869Z,94643.41
2022-11-29T12:03:39.201Z,94647.28
2022-11-29T12:06:23.491Z,94648.03
2022-11-29T12:08:57.905Z,94644.03
2022-11-29T12:11:27.164Z,94648.97
2022-11-29T12:13:56.698Z,94651.28
2022-11-29T12:16:29.513Z,94650.47
2022-11-29T12:19:05.188Z,94658.09
2022-11-29T12:21:34.075Z,94657.19
2022-11-29T12:24:04.226Z,94653.81
2022-11-29T12:26:56.297Z,94653.91
2022-11-29T12:29:24.908Z,94663.72
2022-11-29T12:31:59.267Z,94653.19
2022-11-29T12:34:37.211Z,94657.19
2022-11-29T12:37:08.031Z,94658.31
2022-11-29T12:39:44.491Z,94649.88
2022-11-29T12:42:16.580Z,94658.22
2022-11-29T12:44:50.957Z,94665.28
2022-11-29T12:47:38.822Z,94657.97
2022-11-29T12:50:20.458Z,94657.19
2022-11-29T12:52:58.903Z,94662.22
2022-11-29T12:55:30.194Z,94659.59
2022-11-29T12:58:02.338Z,94662.66
2022-11-29T13:00:32.828Z,94662.34
2022-11-29T13:03:06.838Z,94662.56
2022-11-29T13:05:42.375Z,94660.44
2022-11-29T13:08:20.610Z,94667.78
2022-11-29T13:11:01.542Z,94662.75
2022-11-29T13:13:34.651Z,94667.44
2022-11-29T13:16:06.131Z,94666.56
2022-11-29T13:18:36.757Z,94665.19
2022-11-29T13:21:07.707Z,94664.41
2022-11-29T13:24:07.477Z,94665.41
2022-11-29T13:26:31.115Z,94670.13
2022-11-29T13:28:58.104Z,94676.66
2022-11-29T13:31:25.696Z,94674.03
2022-11-29T13:33:59.511Z,94672.28
2022-11-29T13:36:32.683Z,94676.59
2022-11-29T13:39:05.770Z,94675.31
2022-11-29T13:41:34.894Z,94678.72
2022-11-29T13:44:04.593Z,94673.81
2022-11-29T13:46:35.104Z,94687.50
2022-11-29T13:49:02.178Z,94677.81
2022-11-29T13:51:31.392Z,94681.22
2022-11-29T13:54:00.076Z,94680.19
2022-11-29T13:56:32.950Z,94678.59
2022-11-29T13:59:01.615Z,94683.06
2022-11-29T14:01:28.592Z,94682.00
2022-11-29T14:04:04.683Z,94684.06
2022-11-29T14:06:36.495Z,94685.13
2022-11-29T14:09:21.100Z,94690.13
2022-11-29T14:11:51.576Z,94681.94
2022-11-29T14:17:11.810Z,94686.31
2022-11-29T14:19:38.495Z,94686.31
2022-11-29T14:22:19.890Z,94689.50
2022-11-29T14:25:49.237Z,94694.97
2022-11-29T14:28:25.091Z,94694.09
2022-11-29T14:30:52.441Z,94698.78
2022-11-29T14:33:24.661Z,94703.81
2022-11-29T14:36:00.330Z,94706.19
2022-11-29T14:38:31.225Z,94701.28
2022-11-29T14:41:00.911Z,94704.91
2022-11-29T14:43:32.354Z,94701.84
2022-11-29T14:46:09.188Z,94706.84
2022-11-29T14:48:36.990Z,94702.94
2022-11-29T14:51:09.340Z,94706.94
2022-11-29T14:53:37.717Z,94706.94
2022-11-29T14:56:23.236Z,94707.97
2022-11-29T14:59:12.287Z,94703.75
2022-11-29T15:01:42.779Z,94710.50
2022-11-29T15:04:10.602Z,94702.28
2022-11-29T15:06:45.138Z,94708.03
2022-11-29T15:09:17.207Z,94712.97
2022-11-29T15:11:50.316Z,94707.94
2022-11-29T15:14:27.083Z,94708.97
2022-11-29T15:17:08.957Z,94715.28
2022-11-29T15:19:45.652Z,94718.91
2022-11-29T15:22:16.133Z,94718.91
2022-11-29T15:24:50.201Z,94719.69
2022-11-29T15:27:20.794Z,94717.66
2022-11-29T15:30:02.482Z,94730.56
2022-11-29T15:32:33.544Z,94730.06
2022-11-29T15:35:00.409Z,94732.13
2022-11-29T15:37:41.825Z,94736.81
2022-11-29T15:40:13.759Z,94735.25
2022-11-29T15:42:41.939Z,94742.06
2022-11-29T15:45:36.920Z,94740.25
2022-11-29T15:48:13.966Z,94744.16
2022-11-29T15:50:44.295Z,94748.84
2022-11-29T15:53:15.699Z,94747.94
2022-11-29T15:55:46.223Z,94751.59
2022-11-29T15:58:14.243Z,94751.38
2022-11-29T16:00:43.985Z,94755.59
2022-11-29T16:03:18.351Z,94754.22
2022-11-29T16:05:49.667Z,94757.31
2022-11-29T16:08:18.923Z,94746.50
2022-11-29T16:10:49.493Z,94752.75
2022-11-29T16:13:31.855Z,94753.00
2022-11-29T16:16:10.857Z,94753.69
2022-11-29T16:18:41.025Z,94761.00
2022-11-29T16:21:18.614Z,94756.22
2022-11-29T16:23:46.830Z,94758.06
2022-11-29T16:26:15.401Z,94756.69
2022-11-29T16:28:43.032Z,94755.91
2022-11-29T16:31:13.646Z,94755.31
2022-11-29T16:33:47.878Z,94765.56
2022-11-29T16:36:17.705Z,94757.25
2022-11-29T16:38:45.519Z,94762.84
2022-11-29T16:41:22.097Z,94767.03
2022-11-29T16:43:53.999Z,94767.03
2022-11-29T16:46:26.867Z,94769.13
2022-11-29T16:48:55.615Z,94768.31
2022-11-29T16:51:24.101Z,94768.31
2022-11-29T16:53:54.040Z,94768.88
2022-11-29T16:56:22.802Z,94769.44
2022-11-29T16:59:25.933Z,94772.06
2022-11-29T17:01:39.274Z,94767.63
2022-11-29T17:04:08.834Z,94765.00
2022-11-29T17:06:35.693Z,94766.03
2022-11-29T17:09:02.769Z,94763.63
2022-11-29T17:11:29.583Z,94767.28
2022-11-29T17:13:56.920Z,94773.00
2022-11-29T17:16:24.643Z,94770.38
2022-11-29T17:18:53.663Z,94779.28
2022-11-29T17:21:24.632Z,94776.06
2022-11-29T17:23:52.418Z,94780.78
2022-11-29T17:26:20.042Z,94785.22
2022-11-29T17:28:47.544Z,94790.25
2022-11-29T17:31:14.940Z,94792.66
2022-11-29T17:33:41.749Z,94790.81
2022-11-29T17:36:09.712Z,94790.03
2022-11-29T17:38:39.539Z,94786.03
2022-11-29T17:41:06.777Z,94793.56
2022-11-29T17:43:33.670Z,94793.81
2022-11-29T17:46:05.718Z,94798.00
2022-11-29T17:48:33.687Z,94813.56
2022-11-29T17:51:00.918Z,94802.81
2022-11-29T17:53:29.160Z,94802.00
2022-11-29T17:56:02.343Z,94798.34
2022-11-29T17:58:28.986Z,94806.00
2022-11-29T18:01:03.364Z,94806.78
2022-11-29T18:03:37.561Z,94808.63
2022-11-29T18:06:06.790Z,94806.78
2022-11-29T18:08:37.486Z,94807.59
2022-11-29T18:11:07.434Z,94812.84
2022-11-29T18:13:34.914Z,94815.47
2022-11-29T18:16:02.594Z,94815.47
2022-11-29T18:21:12.635Z,94825.16
2022-11-29T18:26:39.191Z,94831.22
2022-11-29T18:37:20.031Z,94840.94
2022-11-29T18:45:34.866Z,94844.13
2022-11-29T18:48:16.673Z,94844.13
2022-11-29T18:53:53.743Z,94840.25
2022-11-29T18:56:24.482Z,94844.72
2022-11-29T19:04:16.527Z,94837.97
2022-11-29T19:06:44.886Z,94843.22
2022-11-29T19:09:14.467Z,94851.91
2022-11-29T19:14:32.423Z,94847.09
2022-11-29T19:17:01.724Z,94849.97
2022-11-29T19:19:30.110Z,94845.50
2022-11-29T19:24:39.278Z,94854.75
2022-11-29T19:27:24.908Z,94858.41
2022-11-29T19:29:57.510Z,94856.78
2022-11-29T19:32:25.250Z,94854.97
2022-11-29T19:34:54.549Z,94858.63
2022-11-29T19:40:09.306Z,94858.03
2022-11-29T19:45:33.244Z,94863.75
2022-11-29T19:48:16.658Z,94861.38
2022-11-29T19:50:58.292Z,94868.44
2022-11-29T19:56:35.500Z,94872.31
2022-11-29T20:04:58.223Z,94875.97
2022-11-29T20:07:27.012Z,94873.56
2022-11-29T20:12:41.535Z,94872.44
2022-11-29T20:26:15.848Z,94873.91
2022-11-29T20:28:45.669Z,94879.38
2022-11-29T20:47:58.861Z,94898.88
2022-11-29T20:50:27.519Z,94905.75
2022-11-29T20:56:06.372Z,94897.19
2022-11-29T20:58:51.097Z,94903.66
2022-11-29T21:32:37.470Z,94893.38
2022-11-29T21:44:22.397Z,94892.13
2022-11-29T21:52:33.374Z,94899.22
2022-11-29T21:57:41.790Z,94904.66
2022-11-29T22:00:16.778Z,94903.88
2022-11-29T22:02:45.743Z,94899.66
2022-11-29T22:05:18.042Z,94900.47
2022-11-29T22:07:44.913Z,94902.28
2022-11-29T22:12:54.953Z,94898.63
2022-11-29T22:15:25.014Z,94902.28
2022-11-29T22:17:53.273Z,94905.91
2022-11-29T22:23:18.250Z,94906.72
2022-11-29T22:25:49.545Z,94902.50
2022-11-29T22:31:02.410Z,94900.66
2022-11-29T22:33:30.301Z,94900.66
2022-11-29T22:44:05.919Z,94901.47
2022-11-29T22:49:17.811Z,94903.53
2022-11-29T22:51:58.334Z,94908.78
2022-11-29T22:57:06.412Z,94906.94
2022-11-29T22:59:42.774Z,94911.41
2022-11-29T23:04:56.745Z,94896.66
2022-11-29T23:07:26.494Z,94895.66
2022-11-29T23:10:03.311Z,94889.59
2022-11-29T23:15:15.797Z,94897.72
2022-11-29T23:17:43.098Z,94891.16
2022-11-29T23:20:10.373Z,94892.06
2022-11-29T23:22:46.280Z,94886.03
2022-11-29T23:25:14.443Z,94895.50
2022-11-29T23:27:48.572Z,94890.81
2022-11-29T23:30:27.165Z,94894.03
2022-11-29T23:32:57.588Z,94888.00
2022-11-29T23:35:25.463Z,94900.06
2022-11-29T23:40:38.026Z,94886.84
2022-11-29T23:43:08.403Z,94891.28
2022-11-29T23:45:36.229Z,94892.53
2022-11-29T23:48:03.159Z,94890.13
2022-11-29T23:50:30.578Z,94900.03
2022-11-29T23:53:07.100Z,94892.41
2022-11-29T23:55:33.968Z,94895.22
2022-11-29T23:58:01.612Z,94893.06
